sensor_id;sensor_type;location;lat;lon;timestamp;P1;durP1;ratioP1;P2;durP2;ratioP2
19535;SDS011;9913;51.168;4.124;2023-06-26T00:01:29;4.40;;;3.33;;
19535;SDS011;9913;51.168;4.124;2023-06-26T00:03:58;5.43;;;3.53;;
19535;SDS011;9913;51.168;4.124;2023-06-26T00:06:28;5.72;;;3.95;;
19535;SDS011;9913;51.168;4.124;2023-06-26T00:08:56;7.47;;;4.10;;
19535;SDS011;9913;51.168;4.124;2023-06-26T00:11:26;5.03;;;4.25;;
19535;SDS011;9913;51.168;4.124;2023-06-26T00:13:59;7.68;;;3.63;;
19535;SDS011;9913;51.168;4.124;2023-06-26T00:16:28;5.43;;;3.53;;
19535;SDS011;9913;51.168;4.124;2023-06-26T00:18:57;4.70;;;3.85;;
19535;SDS011;9913;51.168;4.124;2023-06-26T00:21:26;6.22;;;3.95;;
19535;SDS011;9913;51.168;4.124;2023-06-26T00:23:54;5.85;;;4.00;;
19535;SDS011;9913;51.168;4.124;2023-06-26T00:26:23;5.50;;;3.28;;
19535;SDS011;9913;51.168;4.124;2023-06-26T00:28:51;4.47;;;3.53;;
19535;SDS011;9913;51.168;4.124;2023-06-26T00:31:21;6.63;;;3.83;;
19535;SDS011;9913;51.168;4.124;2023-06-26T00:33:50;6.13;;;4.07;;
19535;SDS011;9913;51.168;4.124;2023-06-26T00:36:18;6.53;;;4.00;;
19535;SDS011;9913;51.168;4.124;2023-06-26T00:38:46;4.88;;;3.20;;
19535;SDS011;9913;51.168;4.124;2023-06-26T00:41:15;5.60;;;3.63;;
19535;SDS011;9913;51.168;4.124;2023-06-26T00:43:45;6.45;;;3.50;;
19535;SDS011;9913;51.168;4.124;2023-06-26T00:46:14;6.75;;;3.03;;
19535;SDS011;9913;51.168;4.124;2023-06-26T00:48:44;5.20;;;3.78;;
19535;SDS011;9913;51.168;4.124;2023-06-26T00:51:15;10.25;;;4.13;;
19535;SDS011;9913;51.168;4.124;2023-06-26T00:53:43;7.20;;;3.97;;
19535;SDS011;9913;51.168;4.124;2023-06-26T00:56:12;6.80;;;3.80;;
19535;SDS011;9913;51.168;4.124;2023-06-26T00:58:40;5.65;;;3.58;;
19535;SDS011;9913;51.168;4.124;2023-06-26T01:01:08;6.07;;;3.50;;
19535;SDS011;9913;51.168;4.124;2023-06-26T01:03:44;5.50;;;3.22;;
19535;SDS011;9913;51.168;4.124;2023-06-26T01:06:13;6.57;;;3.47;;
19535;SDS011;9913;51.168;4.124;2023-06-26T01:08:42;6.03;;;3.78;;
19535;SDS011;9913;51.168;4.124;2023-06-26T01:11:12;7.47;;;3.70;;
19535;SDS011;9913;51.168;4.124;2023-06-26T01:13:42;5.50;;;3.72;;
19535;SDS011;9913;51.168;4.124;2023-06-26T01:16:11;5.80;;;3.83;;
19535;SDS011;9913;51.168;4.124;2023-06-26T01:18:41;7.38;;;4.20;;
19535;SDS011;9913;51.168;4.124;2023-06-26T01:21:12;5.55;;;3.75;;
19535;SDS011;9913;51.168;4.124;2023-06-26T01:23:58;6.65;;;3.50;;
19535;SDS011;9913;51.168;4.124;2023-06-26T01:26:34;6.95;;;4.07;;
19535;SDS011;9913;51.168;4.124;2023-06-26T01:29:04;6.43;;;4.15;;
19535;SDS011;9913;51.168;4.124;2023-06-26T01:31:35;7.53;;;3.85;;
19535;SDS011;9913;51.168;4.124;2023-06-26T01:34:05;7.65;;;4.47;;
19535;SDS011;9913;51.168;4.124;2023-06-26T01:36:33;7.47;;;4.10;;
19535;SDS011;9913;51.168;4.124;2023-06-26T01:39:04;6.13;;;3.78;;
19535;SDS011;9913;51.168;4.124;2023-06-26T01:41:34;9.38;;;4.82;;
19535;SDS011;9913;51.168;4.124;2023-06-26T01:44:06;8.00;;;4.20;;
19535;SDS011;9913;51.168;4.124;2023-06-26T01:46:50;8.88;;;4.22;;
19535;SDS011;9913;51.168;4.124;2023-06-26T01:49:31;6.00;;;4.30;;
19535;SDS011;9913;51.168;4.124;2023-06-26T01:52:07;9.27;;;3.95;;
19535;SDS011;9913;51.168;4.124;2023-06-26T01:54:42;9.07;;;4.28;;
19535;SDS011;9913;51.168;4.124;2023-06-26T01:57:18;9.80;;;4.50;;
19535;SDS011;9913;51.168;4.124;2023-06-26T01:59:59;5.60;;;3.55;;
19535;SDS011;9913;51.168;4.124;2023-06-26T02:02:40;8.85;;;4.18;;
19535;SDS011;9913;51.168;4.124;2023-06-26T02:05:12;10.00;;;4.68;;
19535;SDS011;9913;51.168;4.124;2023-06-26T02:07:42;5.03;;;3.60;;
19535;SDS011;9913;51.168;4.124;2023-06-26T02:10:10;8.23;;;3.88;;
19535;SDS011;9913;51.168;4.124;2023-06-26T02:12:40;6.22;;;3.80;;
19535;SDS011;9913;51.168;4.124;2023-06-26T02:15:11;7.88;;;3.95;;
19535;SDS011;9913;51.168;4.124;2023-06-26T02:17:40;9.00;;;4.57;;
19535;SDS011;9913;51.168;4.124;2023-06-26T02:20:08;8.70;;;4.10;;
19535;SDS011;9913;51.168;4.124;2023-06-26T02:22:37;8.20;;;4.45;;
19535;SDS011;9913;51.168;4.124;2023-06-26T02:25:08;8.40;;;4.47;;
19535;SDS011;9913;51.168;4.124;2023-06-26T02:27:37;8.93;;;4.40;;
19535;SDS011;9913;51.168;4.124;2023-06-26T02:30:08;10.55;;;4.75;;
19535;SDS011;9913;51.168;4.124;2023-06-26T02:32:37;9.65;;;5.20;;
19535;SDS011;9913;51.168;4.124;2023-06-26T02:35:06;9.00;;;4.53;;
19535;SDS011;9913;51.168;4.124;2023-06-26T02:37:39;11.55;;;5.32;;
19535;SDS011;9913;51.168;4.124;2023-06-26T02:40:08;11.52;;;5.18;;
19535;SDS011;9913;51.168;4.124;2023-06-26T02:42:39;10.05;;;4.85;;
19535;SDS011;9913;51.168;4.124;2023-06-26T02:45:10;9.70;;;4.90;;
19535;SDS011;9913;51.168;4.124;2023-06-26T02:47:38;12.80;;;5.30;;
19535;SDS011;9913;51.168;4.124;2023-06-26T02:50:09;10.13;;;4.80;;
19535;SDS011;9913;51.168;4.124;2023-06-26T02:52:56;12.10;;;5.10;;
19535;SDS011;9913;51.168;4.124;2023-06-26T02:55:26;10.77;;;5.18;;
19535;SDS011;9913;51.168;4.124;2023-06-26T02:57:55;10.13;;;5.22;;
19535;SDS011;9913;51.168;4.124;2023-06-26T03:00:25;9.23;;;5.10;;
19535;SDS011;9913;51.168;4.124;2023-06-26T03:02:59;9.90;;;4.78;;
19535;SDS011;9913;51.168;4.124;2023-06-26T03:05:28;12.50;;;5.38;;
19535;SDS011;9913;51.168;4.124;2023-06-26T03:07:58;10.93;;;5.05;;
19535;SDS011;9913;51.168;4.124;2023-06-26T03:10:27;14.70;;;6.03;;
19535;SDS011;9913;51.168;4.124;2023-06-26T03:12:56;11.90;;;5.07;;
19535;SDS011;9913;51.168;4.124;2023-06-26T03:15:27;12.10;;;5.72;;
19535;SDS011;9913;51.168;4.124;2023-06-26T03:17:55;12.15;;;4.93;;
19535;SDS011;9913;51.168;4.124;2023-06-26T03:20:26;11.85;;;5.13;;
19535;SDS011;9913;51.168;4.124;2023-06-26T03:22:56;14.48;;;5.72;;
19535;SDS011;9913;51.168;4.124;2023-06-26T03:25:25;12.13;;;5.25;;
19535;SDS011;9913;51.168;4.124;2023-06-26T03:28:07;12.18;;;5.43;;
19535;SDS011;9913;51.168;4.124;2023-06-26T03:30:37;11.27;;;4.72;;
19535;SDS011;9913;51.168;4.124;2023-06-26T03:33:06;13.23;;;5.45;;
19535;SDS011;9913;51.168;4.124;2023-06-26T03:35:35;12.65;;;5.38;;
19535;SDS011;9913;51.168;4.124;2023-06-26T03:38:03;14.48;;;5.85;;
19535;SDS011;9913;51.168;4.124;2023-06-26T03:40:32;11.05;;;5.68;;
19535;SDS011;9913;51.168;4.124;2023-06-26T03:43:01;13.10;;;5.30;;
19535;SDS011;9913;51.168;4.124;2023-06-26T03:45:41;17.25;;;5.72;;
19535;SDS011;9913;51.168;4.124;2023-06-26T03:48:10;13.35;;;5.28;;
19535;SDS011;9913;51.168;4.124;2023-06-26T03:50:38;13.60;;;5.32;;
19535;SDS011;9913;51.168;4.124;2023-06-26T03:53:06;13.95;;;5.47;;
19535;SDS011;9913;51.168;4.124;2023-06-26T03:55:35;10.38;;;5.15;;
19535;SDS011;9913;51.168;4.124;2023-06-26T03:58:05;14.13;;;5.57;;
19535;SDS011;9913;51.168;4.124;2023-06-26T04:00:33;15.13;;;5.75;;
19535;SDS011;9913;51.168;4.124;2023-06-26T04:03:03;13.38;;;5.32;;
19535;SDS011;9913;51.168;4.124;2023-06-26T04:05:32;15.15;;;5.45;;
19535;SDS011;9913;51.168;4.124;2023-06-26T04:08:01;13.07;;;5.20;;
19535;SDS011;9913;51.168;4.124;2023-06-26T04:10:29;12.18;;;5.43;;
19535;SDS011;9913;51.168;4.124;2023-06-26T04:12:57;13.10;;;5.20;;
19535;SDS011;9913;51.168;4.124;2023-06-26T04:15:26;13.73;;;5.43;;
19535;SDS011;9913;51.168;4.124;2023-06-26T04:17:54;13.52;;;5.35;;
19535;SDS011;9913;51.168;4.124;2023-06-26T04:20:24;17.13;;;6.00;;
19535;SDS011;9913;51.168;4.124;2023-06-26T04:22:52;13.63;;;5.22;;
19535;SDS011;9913;51.168;4.124;2023-06-26T04:25:21;13.48;;;4.88;;
19535;SDS011;9913;51.168;4.124;2023-06-26T04:27:49;11.30;;;4.22;;
19535;SDS011;9913;51.168;4.124;2023-06-26T04:30:17;12.15;;;5.38;;
19535;SDS011;9913;51.168;4.124;2023-06-26T04:32:46;11.63;;;4.70;;
19535;SDS011;9913;51.168;4.124;2023-06-26T04:35:14;11.85;;;4.90;;
19535;SDS011;9913;51.168;4.124;2023-06-26T04:37:44;12.52;;;4.72;;
19535;SDS011;9913;51.168;4.124;2023-06-26T04:40:13;13.65;;;5.05;;
19535;SDS011;9913;51.168;4.124;2023-06-26T04:42:41;10.82;;;5.03;;
19535;SDS011;9913;51.168;4.124;2023-06-26T04:45:09;13.68;;;5.30;;
19535;SDS011;9913;51.168;4.124;2023-06-26T04:47:38;10.00;;;4.65;;
19535;SDS011;9913;51.168;4.124;2023-06-26T04:50:07;11.85;;;4.80;;
19535;SDS011;9913;51.168;4.124;2023-06-26T04:52:36;16.23;;;5.40;;
19535;SDS011;9913;51.168;4.124;2023-06-26T04:55:06;10.85;;;5.25;;
19535;SDS011;9913;51.168;4.124;2023-06-26T04:57:34;12.48;;;5.22;;
19535;SDS011;9913;51.168;4.124;2023-06-26T05:00:03;11.68;;;5.47;;
19535;SDS011;9913;51.168;4.124;2023-06-26T05:02:36;15.90;;;5.28;;
19535;SDS011;9913;51.168;4.124;2023-06-26T05:05:05;9.48;;;5.03;;
19535;SDS011;9913;51.168;4.124;2023-06-26T05:07:33;12.68;;;5.13;;
19535;SDS011;9913;51.168;4.124;2023-06-26T05:10:02;13.18;;;5.25;;
19535;SDS011;9913;51.168;4.124;2023-06-26T05:12:32;9.90;;;4.63;;
19535;SDS011;9913;51.168;4.124;2023-06-26T05:15:01;11.55;;;4.72;;
19535;SDS011;9913;51.168;4.124;2023-06-26T05:17:30;11.52;;;4.63;;
19535;SDS011;9913;51.168;4.124;2023-06-26T05:19:58;12.63;;;5.13;;
19535;SDS011;9913;51.168;4.124;2023-06-26T05:22:28;15.90;;;5.40;;
19535;SDS011;9913;51.168;4.124;2023-06-26T05:24:57;11.90;;;5.47;;
19535;SDS011;9913;51.168;4.124;2023-06-26T05:27:27;11.82;;;4.40;;
19535;SDS011;9913;51.168;4.124;2023-06-26T05:29:58;11.77;;;4.53;;
19535;SDS011;9913;51.168;4.124;2023-06-26T05:32:26;12.85;;;3.88;;
19535;SDS011;9913;51.168;4.124;2023-06-26T05:34:55;12.35;;;3.72;;
19535;SDS011;9913;51.168;4.124;2023-06-26T05:37:27;10.90;;;3.97;;
19535;SDS011;9913;51.168;4.124;2023-06-26T05:39:57;10.93;;;3.45;;
19535;SDS011;9913;51.168;4.124;2023-06-26T05:42:26;8.02;;;3.20;;
19535;SDS011;9913;51.168;4.124;2023-06-26T05:44:54;9.23;;;3.33;;
19535;SDS011;9913;51.168;4.124;2023-06-26T05:47:24;8.95;;;3.20;;
19535;SDS011;9913;51.168;4.124;2023-06-26T05:49:53;10.48;;;3.25;;
19535;SDS011;9913;51.168;4.124;2023-06-26T05:52:22;6.05;;;2.42;;
19535;SDS011;9913;51.168;4.124;2023-06-26T05:54:51;6.72;;;2.70;;
19535;SDS011;9913;51.168;4.124;2023-06-26T05:57:19;7.45;;;2.60;;
19535;SDS011;9913;51.168;4.124;2023-06-26T05:59:48;11.50;;;2.97;;
19535;SDS011;9913;51.168;4.124;2023-06-26T06:02:17;5.85;;;2.42;;
19535;SDS011;9913;51.168;4.124;2023-06-26T06:04:47;6.47;;;2.20;;
19535;SDS011;9913;51.168;4.124;2023-06-26T06:07:15;6.43;;;1.83;;
19535;SDS011;9913;51.168;4.124;2023-06-26T06:09:44;7.25;;;2.17;;
19535;SDS011;9913;51.168;4.124;2023-06-26T06:12:12;6.97;;;1.92;;
19535;SDS011;9913;51.168;4.124;2023-06-26T06:14:41;6.63;;;2.05;;
19535;SDS011;9913;51.168;4.124;2023-06-26T06:17:09;5.80;;;1.77;;
19535;SDS011;9913;51.168;4.124;2023-06-26T06:19:37;5.60;;;2.03;;
19535;SDS011;9913;51.168;4.124;2023-06-26T06:22:07;4.88;;;1.70;;
19535;SDS011;9913;51.168;4.124;2023-06-26T06:24:35;4.38;;;1.42;;
19535;SDS011;9913;51.168;4.124;2023-06-26T06:27:04;6.45;;;1.80;;
19535;SDS011;9913;51.168;4.124;2023-06-26T06:29:33;5.50;;;1.85;;
19535;SDS011;9913;51.168;4.124;2023-06-26T06:32:01;7.18;;;1.95;;
19535;SDS011;9913;51.168;4.124;2023-06-26T06:34:30;6.65;;;1.90;;
19535;SDS011;9913;51.168;4.124;2023-06-26T06:36:58;4.80;;;1.40;;
19535;SDS011;9913;51.168;4.124;2023-06-26T06:39:27;2.90;;;1.42;;
19535;SDS011;9913;51.168;4.124;2023-06-26T06:41:56;4.13;;;1.70;;
19535;SDS011;9913;51.168;4.124;2023-06-26T06:44:24;3.63;;;1.30;;
19535;SDS011;9913;51.168;4.124;2023-06-26T06:46:57;5.65;;;1.83;;
19535;SDS011;9913;51.168;4.124;2023-06-26T06:49:26;3.90;;;1.55;;
19535;SDS011;9913;51.168;4.124;2023-06-26T06:51:54;3.40;;;1.83;;
19535;SDS011;9913;51.168;4.124;2023-06-26T06:54:25;6.43;;;1.63;;
19535;SDS011;9913;51.168;4.124;2023-06-26T06:56:55;4.95;;;1.63;;
19535;SDS011;9913;51.168;4.124;2023-06-26T06:59:23;7.32;;;1.80;;
19535;SDS011;9913;51.168;4.124;2023-06-26T07:01:52;2.95;;;1.27;;
19535;SDS011;9913;51.168;4.124;2023-06-26T07:04:20;3.03;;;1.60;;
19535;SDS011;9913;51.168;4.124;2023-06-26T07:06:49;4.95;;;1.60;;
19535;SDS011;9913;51.168;4.124;2023-06-26T07:09:17;3.65;;;1.77;;
19535;SDS011;9913;51.168;4.124;2023-06-26T07:11:45;3.15;;;1.42;;
19535;SDS011;9913;51.168;4.124;2023-06-26T07:14:16;7.63;;;1.88;;
19535;SDS011;9913;51.168;4.124;2023-06-26T07:16:45;4.78;;;1.85;;
19535;SDS011;9913;51.168;4.124;2023-06-26T07:19:13;4.38;;;1.70;;
19535;SDS011;9913;51.168;4.124;2023-06-26T07:21:42;3.78;;;1.77;;
19535;SDS011;9913;51.168;4.124;2023-06-26T07:24:11;3.67;;;1.70;;
19535;SDS011;9913;51.168;4.124;2023-06-26T07:26:39;4.07;;;1.20;;
19535;SDS011;9913;51.168;4.124;2023-06-26T07:29:12;3.75;;;1.90;;
19535;SDS011;9913;51.168;4.124;2023-06-26T07:31:42;5.78;;;1.70;;
19535;SDS011;9913;51.168;4.124;2023-06-26T07:34:12;4.10;;;1.42;;
19535;SDS011;9913;51.168;4.124;2023-06-26T07:36:40;6.57;;;2.00;;
19535;SDS011;9913;51.168;4.124;2023-06-26T07:39:08;3.38;;;1.35;;
19535;SDS011;9913;51.168;4.124;2023-06-26T07:41:43;4.78;;;1.80;;
19535;SDS011;9913;51.168;4.124;2023-06-26T07:44:12;3.28;;;1.40;;
19535;SDS011;9913;51.168;4.124;2023-06-26T07:46:42;4.50;;;1.40;;
19535;SDS011;9913;51.168;4.124;2023-06-26T07:49:11;4.97;;;1.60;;
19535;SDS011;9913;51.168;4.124;2023-06-26T07:51:40;5.90;;;1.75;;
19535;SDS011;9913;51.168;4.124;2023-06-26T07:54:08;3.42;;;1.05;;
19535;SDS011;9913;51.168;4.124;2023-06-26T07:56:52;5.15;;;1.48;;
19535;SDS011;9913;51.168;4.124;2023-06-26T07:59:22;2.70;;;1.13;;
19535;SDS011;9913;51.168;4.124;2023-06-26T08:01:53;3.50;;;1.20;;
19535;SDS011;9913;51.168;4.124;2023-06-26T08:04:23;7.28;;;1.75;;
19535;SDS011;9913;51.168;4.124;2023-06-26T08:06:54;3.67;;;1.73;;
19535;SDS011;9913;51.168;4.124;2023-06-26T08:09:25;5.80;;;1.73;;
19535;SDS011;9913;51.168;4.124;2023-06-26T08:11:54;6.28;;;1.73;;
19535;SDS011;9913;51.168;4.124;2023-06-26T08:14:23;4.70;;;1.63;;
19535;SDS011;9913;51.168;4.124;2023-06-26T08:16:53;4.72;;;1.60;;
19535;SDS011;9913;51.168;4.124;2023-06-26T08:19:22;3.63;;;1.58;;
19535;SDS011;9913;51.168;4.124;2023-06-26T08:21:50;5.57;;;1.70;;
19535;SDS011;9913;51.168;4.124;2023-06-26T08:24:18;3.65;;;1.38;;
19535;SDS011;9913;51.168;4.124;2023-06-26T08:26:50;8.57;;;1.95;;
19535;SDS011;9913;51.168;4.124;2023-06-26T08:29:18;4.38;;;1.60;;
19535;SDS011;9913;51.168;4.124;2023-06-26T08:31:46;3.83;;;1.90;;
19535;SDS011;9913;51.168;4.124;2023-06-26T08:34:16;6.03;;;2.17;;
19535;SDS011;9913;51.168;4.124;2023-06-26T08:36:44;5.18;;;1.77;;
19535;SDS011;9913;51.168;4.124;2023-06-26T08:39:12;6.88;;;1.83;;
19535;SDS011;9913;51.168;4.124;2023-06-26T08:41:41;4.80;;;1.77;;
19535;SDS011;9913;51.168;4.124;2023-06-26T08:44:10;4.00;;;1.40;;
19535;SDS011;9913;51.168;4.124;2023-06-26T08:46:38;4.03;;;1.88;;
19535;SDS011;9913;51.168;4.124;2023-06-26T08:49:09;4.13;;;1.67;;
19535;SDS011;9913;51.168;4.124;2023-06-26T08:51:45;4.13;;;1.90;;
19535;SDS011;9913;51.168;4.124;2023-06-26T08:54:21;3.55;;;1.63;;
19535;SDS011;9913;51.168;4.124;2023-06-26T08:56:55;3.50;;;1.63;;
19535;SDS011;9913;51.168;4.124;2023-06-26T08:59:25;4.65;;;1.70;;
19535;SDS011;9913;51.168;4.124;2023-06-26T09:01:54;3.55;;;1.63;;
19535;SDS011;9913;51.168;4.124;2023-06-26T09:04:23;3.00;;;1.58;;
19535;SDS011;9913;51.168;4.124;2023-06-26T09:06:53;6.45;;;1.85;;
19535;SDS011;9913;51.168;4.124;2023-06-26T09:09:21;5.25;;;1.70;;
19535;SDS011;9913;51.168;4.124;2023-06-26T09:11:50;4.95;;;1.80;;
19535;SDS011;9913;51.168;4.124;2023-06-26T09:14:18;3.67;;;1.52;;
19535;SDS011;9913;51.168;4.124;2023-06-26T09:16:47;4.28;;;1.70;;
19535;SDS011;9913;51.168;4.124;2023-06-26T09:19:16;2.78;;;1.42;;
19535;SDS011;9913;51.168;4.124;2023-06-26T09:21:44;4.60;;;1.83;;
19535;SDS011;9913;51.168;4.124;2023-06-26T09:24:14;3.50;;;1.67;;
19535;SDS011;9913;51.168;4.124;2023-06-26T09:26:44;2.83;;;1.35;;
19535;SDS011;9913;51.168;4.124;2023-06-26T09:29:13;2.42;;;1.40;;
19535;SDS011;9913;51.168;4.124;2023-06-26T09:31:43;3.72;;;1.40;;
19535;SDS011;9913;51.168;4.124;2023-06-26T09:34:12;3.65;;;1.50;;
19535;SDS011;9913;51.168;4.124;2023-06-26T09:36:40;3.97;;;1.70;;
19535;SDS011;9913;51.168;4.124;2023-06-26T09:39:14;5.82;;;1.85;;
19535;SDS011;9913;51.168;4.124;2023-06-26T09:41:43;4.63;;;1.45;;
19535;SDS011;9913;51.168;4.124;2023-06-26T09:44:13;2.92;;;1.20;;
19535;SDS011;9913;51.168;4.124;2023-06-26T09:46:44;3.45;;;1.52;;
19535;SDS011;9913;51.168;4.124;2023-06-26T09:49:13;4.88;;;1.63;;
19535;SDS011;9913;51.168;4.124;2023-06-26T09:51:42;4.93;;;1.50;;
19535;SDS011;9913;51.168;4.124;2023-06-26T09:54:10;3.30;;;1.40;;
19535;SDS011;9913;51.168;4.124;2023-06-26T09:56:40;3.03;;;1.20;;
19535;SDS011;9913;51.168;4.124;2023-06-26T09:59:08;4.63;;;1.35;;
19535;SDS011;9913;51.168;4.124;2023-06-26T10:01:39;2.28;;;1.30;;
19535;SDS011;9913;51.168;4.124;2023-06-26T10:04:10;2.55;;;1.35;;
19535;SDS011;9913;51.168;4.124;2023-06-26T10:06:41;5.00;;;1.38;;
19535;SDS011;9913;51.168;4.124;2023-06-26T10:09:13;4.72;;;1.42;;
19535;SDS011;9913;51.168;4.124;2023-06-26T10:11:46;3.63;;;1.50;;
19535;SDS011;9913;51.168;4.124;2023-06-26T10:14:18;2.85;;;1.40;;
19535;SDS011;9913;51.168;4.124;2023-06-26T10:16:49;3.30;;;1.48;;
19535;SDS011;9913;51.168;4.124;2023-06-26T10:19:18;4.15;;;1.50;;
19535;SDS011;9913;51.168;4.124;2023-06-26T10:21:52;4.90;;;1.45;;
19535;SDS011;9913;51.168;4.124;2023-06-26T10:24:22;3.17;;;1.60;;
19535;SDS011;9913;51.168;4.124;2023-06-26T10:26:55;5.50;;;1.60;;
19535;SDS011;9913;51.168;4.124;2023-06-26T10:29:27;3.65;;;1.55;;
19535;SDS011;9913;51.168;4.124;2023-06-26T10:31:58;3.72;;;1.20;;
19535;SDS011;9913;51.168;4.124;2023-06-26T10:34:30;4.90;;;1.50;;
19535;SDS011;9913;51.168;4.124;2023-06-26T10:36:59;2.85;;;1.33;;
19535;SDS011;9913;51.168;4.124;2023-06-26T10:39:32;3.20;;;1.27;;
19535;SDS011;9913;51.168;4.124;2023-06-26T10:42:16;3.90;;;1.50;;
19535;SDS011;9913;51.168;4.124;2023-06-26T10:44:46;3.95;;;1.85;;
19535;SDS011;9913;51.168;4.124;2023-06-26T10:47:31;4.25;;;1.40;;
19535;SDS011;9913;51.168;4.124;2023-06-26T10:50:18;2.72;;;1.42;;
19535;SDS011;9913;51.168;4.124;2023-06-26T10:53:13;4.00;;;1.23;;
19535;SDS011;9913;51.168;4.124;2023-06-26T10:55:50;4.57;;;1.75;;
19535;SDS011;9913;51.168;4.124;2023-06-26T10:58:41;3.80;;;1.35;;
19535;SDS011;9913;51.168;4.124;2023-06-26T11:01:16;2.80;;;1.60;;
19535;SDS011;9913;51.168;4.124;2023-06-26T11:03:47;6.00;;;2.03;;
19535;SDS011;9913;51.168;4.124;2023-06-26T11:06:19;3.78;;;1.50;;
19535;SDS011;9913;51.168;4.124;2023-06-26T11:08:49;6.75;;;1.60;;
19535;SDS011;9913;51.168;4.124;2023-06-26T11:11:20;3.65;;;1.20;;
19535;SDS011;9913;51.168;4.124;2023-06-26T11:13:50;2.25;;;1.55;;
19535;SDS011;9913;51.168;4.124;2023-06-26T11:16:19;2.03;;;1.30;;
19535;SDS011;9913;51.168;4.124;2023-06-26T11:18:48;6.35;;;1.75;;
19535;SDS011;9913;51.168;4.124;2023-06-26T11:21:17;3.67;;;1.40;;
19535;SDS011;9913;51.168;4.124;2023-06-26T11:23:50;3.00;;;1.20;;
19535;SDS011;9913;51.168;4.124;2023-06-26T11:26:21;2.13;;;1.40;;
19535;SDS011;9913;51.168;4.124;2023-06-26T11:28:51;4.25;;;1.60;;
19535;SDS011;9913;51.168;4.124;2023-06-26T11:31:25;2.10;;;1.10;;
19535;SDS011;9913;51.168;4.124;2023-06-26T11:33:55;3.75;;;1.52;;
19535;SDS011;9913;51.168;4.124;2023-06-26T11:36:25;3.70;;;1.50;;
19535;SDS011;9913;51.168;4.124;2023-06-26T11:38:54;5.43;;;1.80;;
19535;SDS011;9913;51.168;4.124;2023-06-26T11:41:23;2.67;;;1.50;;
19535;SDS011;9913;51.168;4.124;2023-06-26T11:43:55;5.72;;;1.75;;
19535;SDS011;9913;51.168;4.124;2023-06-26T11:46:23;4.10;;;1.70;;
19535;SDS011;9913;51.168;4.124;2023-06-26T11:48:52;6.10;;;1.92;;
19535;SDS011;9913;51.168;4.124;2023-06-26T11:51:21;4.72;;;1.40;;
19535;SDS011;9913;51.168;4.124;2023-06-26T11:53:51;3.95;;;1.50;;
19535;SDS011;9913;51.168;4.124;2023-06-26T11:56:20;4.25;;;1.50;;
19535;SDS011;9913;51.168;4.124;2023-06-26T11:58:57;4.05;;;1.67;;
19535;SDS011;9913;51.168;4.124;2023-06-26T12:01:30;5.38;;;1.70;;
19535;SDS011;9913;51.168;4.124;2023-06-26T12:04:01;3.30;;;1.60;;
19535;SDS011;9913;51.168;4.124;2023-06-26T12:06:31;5.30;;;2.03;;
19535;SDS011;9913;51.168;4.124;2023-06-26T12:09:04;2.83;;;1.52;;
19535;SDS011;9913;51.168;4.124;2023-06-26T12:11:36;4.85;;;1.33;;
19535;SDS011;9913;51.168;4.124;2023-06-26T12:14:08;2.15;;;1.20;;
19535;SDS011;9913;51.168;4.124;2023-06-26T12:16:37;5.05;;;1.40;;
19535;SDS011;9913;51.168;4.124;2023-06-26T12:19:07;3.75;;;1.55;;
19535;SDS011;9913;51.168;4.124;2023-06-26T12:21:46;3.03;;;1.33;;
19535;SDS011;9913;51.168;4.124;2023-06-26T12:24:20;7.07;;;2.33;;
19535;SDS011;9913;51.168;4.124;2023-06-26T12:26:50;3.20;;;1.60;;
19535;SDS011;9913;51.168;4.124;2023-06-26T12:29:22;3.35;;;1.50;;
19535;SDS011;9913;51.168;4.124;2023-06-26T12:31:57;2.78;;;1.40;;
19535;SDS011;9913;51.168;4.124;2023-06-26T12:34:27;3.97;;;1.30;;
19535;SDS011;9913;51.168;4.124;2023-06-26T12:36:59;6.53;;;1.60;;
19535;SDS011;9913;51.168;4.124;2023-06-26T12:39:29;4.68;;;1.65;;
19535;SDS011;9913;51.168;4.124;2023-06-26T12:41:59;4.63;;;1.45;;
19535;SDS011;9913;51.168;4.124;2023-06-26T12:44:33;5.03;;;1.70;;
19535;SDS011;9913;51.168;4.124;2023-06-26T12:47:02;3.92;;;1.60;;
19535;SDS011;9913;51.168;4.124;2023-06-26T12:49:32;3.00;;;1.52;;
19535;SDS011;9913;51.168;4.124;2023-06-26T12:52:03;3.95;;;1.40;;
19535;SDS011;9913;51.168;4.124;2023-06-26T12:54:33;2.53;;;1.48;;
19535;SDS011;9913;51.168;4.124;2023-06-26T12:57:02;3.67;;;1.45;;
19535;SDS011;9913;51.168;4.124;2023-06-26T12:59:31;3.20;;;1.80;;
19535;SDS011;9913;51.168;4.124;2023-06-26T13:02:01;3.42;;;1.73;;
19535;SDS011;9913;51.168;4.124;2023-06-26T13:04:31;4.50;;;1.70;;
19535;SDS011;9913;51.168;4.124;2023-06-26T13:07:00;4.03;;;1.65;;
19535;SDS011;9913;51.168;4.124;2023-06-26T13:09:31;3.95;;;1.48;;
19535;SDS011;9913;51.168;4.124;2023-06-26T13:12:02;3.67;;;1.42;;
19535;SDS011;9913;51.168;4.124;2023-06-26T13:14:35;3.17;;;1.30;;
19535;SDS011;9913;51.168;4.124;2023-06-26T13:17:06;4.85;;;1.83;;
19535;SDS011;9913;51.168;4.124;2023-06-26T13:19:36;3.78;;;1.52;;
19535;SDS011;9913;51.168;4.124;2023-06-26T13:22:04;3.63;;;1.50;;
19535;SDS011;9913;51.168;4.124;2023-06-26T13:24:33;2.13;;;1.42;;
19535;SDS011;9913;51.168;4.124;2023-06-26T13:27:01;3.03;;;1.30;;
19535;SDS011;9913;51.168;4.124;2023-06-26T13:29:31;4.95;;;1.30;;
19535;SDS011;9913;51.168;4.124;2023-06-26T13:31:59;3.40;;;1.48;;
19535;SDS011;9913;51.168;4.124;2023-06-26T13:34:29;2.67;;;1.30;;
19535;SDS011;9913;51.168;4.124;2023-06-26T13:36:57;2.30;;;1.13;;
19535;SDS011;9913;51.168;4.124;2023-06-26T13:39:27;3.97;;;1.38;;
19535;SDS011;9913;51.168;4.124;2023-06-26T13:41:55;2.90;;;1.48;;
19535;SDS011;9913;51.168;4.124;2023-06-26T13:44:24;3.10;;;1.27;;
19535;SDS011;9913;51.168;4.124;2023-06-26T13:47:12;3.53;;;1.30;;
19535;SDS011;9913;51.168;4.124;2023-06-26T13:49:42;3.53;;;1.20;;
19535;SDS011;9913;51.168;4.124;2023-06-26T13:52:11;2.33;;;1.27;;
19535;SDS011;9913;51.168;4.124;2023-06-26T13:54:39;3.55;;;1.30;;
19535;SDS011;9913;51.168;4.124;2023-06-26T13:57:09;4.00;;;1.17;;
19535;SDS011;9913;51.168;4.124;2023-06-26T13:59:37;3.28;;;1.27;;
19535;SDS011;9913;51.168;4.124;2023-06-26T14:02:07;3.35;;;1.30;;
19535;SDS011;9913;51.168;4.124;2023-06-26T14:04:35;3.50;;;1.20;;
19535;SDS011;9913;51.168;4.124;2023-06-26T14:07:07;2.50;;;1.48;;
19535;SDS011;9913;51.168;4.124;2023-06-26T14:09:35;3.63;;;1.60;;
19535;SDS011;9913;51.168;4.124;2023-06-26T14:12:04;3.47;;;1.40;;
19535;SDS011;9913;51.168;4.124;2023-06-26T14:14:33;3.15;;;1.50;;
19535;SDS011;9913;51.168;4.124;2023-06-26T14:17:02;5.05;;;1.80;;
19535;SDS011;9913;51.168;4.124;2023-06-26T14:19:32;4.85;;;1.70;;
19535;SDS011;9913;51.168;4.124;2023-06-26T14:22:00;3.83;;;1.55;;
19535;SDS011;9913;51.168;4.124;2023-06-26T14:24:30;3.65;;;1.52;;
19535;SDS011;9913;51.168;4.124;2023-06-26T14:26:58;3.55;;;1.48;;
19535;SDS011;9913;51.168;4.124;2023-06-26T14:32:39;4.50;;;1.58;;
19535;SDS011;9913;51.168;4.124;2023-06-26T14:35:08;4.05;;;1.50;;
19535;SDS011;9913;51.168;4.124;2023-06-26T14:37:37;3.72;;;2.00;;
19535;SDS011;9913;51.168;4.124;2023-06-26T14:40:08;4.00;;;1.58;;
19535;SDS011;9913;51.168;4.124;2023-06-26T14:42:37;3.47;;;1.63;;
19535;SDS011;9913;51.168;4.124;2023-06-26T14:45:06;3.60;;;1.38;;
19535;SDS011;9913;51.168;4.124;2023-06-26T14:47:36;2.53;;;1.40;;
19535;SDS011;9913;51.168;4.124;2023-06-26T14:50:05;3.35;;;1.40;;
19535;SDS011;9913;51.168;4.124;2023-06-26T14:52:34;3.25;;;1.50;;
19535;SDS011;9913;51.168;4.124;2023-06-26T14:55:03;4.35;;;1.85;;
19535;SDS011;9913;51.168;4.124;2023-06-26T14:57:35;3.72;;;1.35;;
19535;SDS011;9913;51.168;4.124;2023-06-26T15:00:05;2.33;;;1.70;;
19535;SDS011;9913;51.168;4.124;2023-06-26T15:02:34;3.10;;;1.27;;
19535;SDS011;9913;51.168;4.124;2023-06-26T15:05:03;3.88;;;1.40;;
19535;SDS011;9913;51.168;4.124;2023-06-26T15:07:32;3.63;;;1.55;;
19535;SDS011;9913;51.168;4.124;2023-06-26T15:10:01;5.03;;;1.73;;
19535;SDS011;9913;51.168;4.124;2023-06-26T15:12:29;3.25;;;1.30;;
19535;SDS011;9913;51.168;4.124;2023-06-26T15:14:59;3.05;;;1.20;;
19535;SDS011;9913;51.168;4.124;2023-06-26T15:17:27;3.35;;;1.50;;
19535;SDS011;9913;51.168;4.124;2023-06-26T15:19:55;2.63;;;1.50;;